createdAt,value
2023-04-30T00:00:46.758Z,14.67
2023-04-30T00:03:50.059Z,14.36
2023-04-30T00:06:53.378Z,15.62
2023-04-30T00:09:56.922Z,17.08
2023-04-30T00:13:00.308Z,17.61
2023-04-30T00:16:03.696Z,17.06
2023-04-30T00:19:07.124Z,17.18
2023-04-30T00:22:10.494Z,18.19
2023-04-30T00:25:13.738Z,19.21
2023-04-30T00:28:16.912Z,19.27
2023-04-30T00:31:20.071Z,18.82
2023-04-30T00:34:23.197Z,19.21
2023-04-30T00:37:26.488Z,20.31
2023-04-30T00:40:30.980Z,20.98
2023-04-30T00:43:35.051Z,19.72
2023-04-30T00:46:38.274Z,17.48
2023-04-30T00:49:41.864Z,15.42
2023-04-30T00:52:45.475Z,14.31
2023-04-30T00:55:49.808Z,13.93
2023-04-30T00:58:57.687Z,13.89
2023-04-30T01:02:01.860Z,13.69
2023-04-30T01:05:05.753Z,13.42
2023-04-30T01:08:10.456Z,12.97
2023-04-30T01:11:24.206Z,12.60
2023-04-30T01:14:53.224Z,12.12
2023-04-30T01:18:02.318Z,11.83
2023-04-30T01:21:06.835Z,11.49
2023-04-30T01:24:28.698Z,11.47
2023-04-30T01:27:50.110Z,11.30
2023-04-30T01:30:53.904Z,11.15
2023-04-30T01:33:57.128Z,11.22
2023-04-30T01:37:16.236Z,11.47
2023-04-30T01:40:31.018Z,11.57
2023-04-30T01:43:43.107Z,11.67
2023-04-30T01:46:59.960Z,12.03
2023-04-30T01:50:22.262Z,12.15
2023-04-30T01:53:37.338Z,12.44
2023-04-30T01:56:51.897Z,12.62
2023-04-30T01:59:55.535Z,12.61
2023-04-30T02:02:59.539Z,12.66
2023-04-30T02:06:02.865Z,12.68
2023-04-30T02:09:07.711Z,12.79
2023-04-30T02:12:10.517Z,13.23
2023-04-30T02:15:14.745Z,13.11
2023-04-30T02:18:17.968Z,13.00
2023-04-30T02:21:21.818Z,12.92
2023-04-30T02:24:25.568Z,12.68
2023-04-30T02:27:32.186Z,12.67
2023-04-30T02:30:35.448Z,12.64
2023-04-30T02:33:38.602Z,12.46
2023-04-30T02:36:42.033Z,12.39
2023-04-30T02:39:45.401Z,12.24
2023-04-30T02:42:49.046Z,12.25
2023-04-30T02:45:52.517Z,12.31
2023-04-30T02:48:55.897Z,12.44
2023-04-30T02:51:59.088Z,12.48
2023-04-30T02:55:02.261Z,12.42
2023-04-30T02:58:05.522Z,12.47
2023-04-30T03:01:09.196Z,12.52
2023-04-30T03:04:12.495Z,12.46
2023-04-30T03:07:15.713Z,12.43
2023-04-30T03:10:19.762Z,12.43
2023-04-30T03:13:23.139Z,12.45
2023-04-30T03:16:26.397Z,12.44
2023-04-30T03:19:29.692Z,12.42
2023-04-30T03:22:32.849Z,12.45
2023-04-30T03:25:36.254Z,12.47
2023-04-30T03:28:39.485Z,12.63
2023-04-30T03:31:42.775Z,12.89
2023-04-30T03:34:46.281Z,13.22
2023-04-30T03:37:49.458Z,13.46
2023-04-30T03:40:52.757Z,13.78
2023-04-30T03:43:56.282Z,14.15
2023-04-30T03:46:59.585Z,14.60
2023-04-30T03:50:04.011Z,15.03
2023-04-30T03:53:07.266Z,15.33
2023-04-30T03:56:11.625Z,15.25
2023-04-30T03:59:15.000Z,15.20
2023-04-30T04:02:18.479Z,15.09
2023-04-30T04:05:21.941Z,15.14
2023-04-30T04:08:25.212Z,15.31
2023-04-30T04:11:28.519Z,15.31
2023-04-30T04:14:33.008Z,15.33
2023-04-30T04:17:36.459Z,15.63
2023-04-30T04:20:39.678Z,15.86
2023-04-30T04:23:43.048Z,15.92
2023-04-30T04:26:47.934Z,16.14
2023-04-30T04:29:55.882Z,16.52
2023-04-30T04:32:59.483Z,16.95
2023-04-30T04:36:02.782Z,17.17
2023-04-30T04:39:06.311Z,17.31
2023-04-30T04:42:10.417Z,17.49
2023-04-30T04:45:13.796Z,17.79
2023-04-30T04:48:17.403Z,18.00
2023-04-30T04:51:21.458Z,18.33
2023-04-30T04:54:24.902Z,18.43
2023-04-30T04:57:28.275Z,18.15
2023-04-30T05:00:31.514Z,17.60
2023-04-30T05:03:39.443Z,17.12
2023-04-30T05:06:43.436Z,17.00
2023-04-30T05:09:47.887Z,16.93
2023-04-30T05:12:51.112Z,16.53
2023-04-30T05:15:55.302Z,16.57
2023-04-30T05:18:58.515Z,16.73
2023-04-30T05:22:02.198Z,16.84
2023-04-30T05:25:05.896Z,17.00
2023-04-30T05:28:09.165Z,16.99
2023-04-30T05:31:12.459Z,16.63
2023-04-30T05:34:16.297Z,16.79
2023-04-30T05:37:21.187Z,17.30
2023-04-30T05:40:24.410Z,17.50
2023-04-30T05:43:27.530Z,17.67
2023-04-30T05:46:31.009Z,17.81
2023-04-30T05:49:36.042Z,17.70
2023-04-30T05:52:39.639Z,17.33
2023-04-30T05:55:43.119Z,17.20
2023-04-30T05:58:46.448Z,17.23
2023-04-30T06:01:49.807Z,17.35
2023-04-30T06:04:53.031Z,17.68
2023-04-30T06:07:56.211Z,17.99
2023-04-30T06:10:59.548Z,18.24
2023-04-30T06:14:02.889Z,18.48
2023-04-30T06:17:06.201Z,18.58
2023-04-30T06:20:09.804Z,18.67
2023-04-30T06:23:12.926Z,18.67
2023-04-30T06:26:16.235Z,18.72
2023-04-30T06:29:19.520Z,18.71
2023-04-30T06:32:22.757Z,18.74
2023-04-30T06:35:25.919Z,18.79
2023-04-30T06:38:29.148Z,18.71
2023-04-30T06:41:32.369Z,18.59
2023-04-30T06:44:35.512Z,18.47
2023-04-30T06:47:39.206Z,18.53
2023-04-30T06:50:45.526Z,18.60
2023-04-30T06:56:51.973Z,18.57
2023-04-30T06:59:55.646Z,18.77
2023-04-30T07:03:03.201Z,19.00
2023-04-30T07:06:06.898Z,18.79
2023-04-30T07:09:10.079Z,18.78
2023-04-30T07:12:14.296Z,18.62
2023-04-30T07:15:17.812Z,18.10
2023-04-30T07:18:21.252Z,17.74
2023-04-30T07:21:26.208Z,17.62
2023-04-30T07:24:29.600Z,17.72
2023-04-30T07:27:33.067Z,17.77
2023-04-30T07:30:36.419Z,17.83
2023-04-30T07:33:39.588Z,17.83
2023-04-30T07:36:42.833Z,17.83
2023-04-30T07:39:45.986Z,17.95
2023-04-30T07:42:49.174Z,18.15
2023-04-30T07:45:54.160Z,18.27
2023-04-30T07:48:57.421Z,18.39
2023-04-30T07:52:02.060Z,18.39
2023-04-30T07:55:05.162Z,18.66
2023-04-30T07:58:08.435Z,18.65
2023-04-30T08:01:11.586Z,18.65
2023-04-30T08:04:14.807Z,18.67
2023-04-30T08:07:18.134Z,18.68
2023-04-30T08:10:21.482Z,18.69
2023-04-30T08:13:24.681Z,18.56
2023-04-30T08:16:27.950Z,18.37
2023-04-30T08:19:31.727Z,18.33
2023-04-30T08:22:35.083Z,18.36
2023-04-30T08:25:38.236Z,18.43
2023-04-30T08:28:41.423Z,18.28
2023-04-30T08:31:44.698Z,18.34
2023-04-30T08:34:47.906Z,18.28
2023-04-30T08:37:51.182Z,18.05
2023-04-30T08:41:00.614Z,17.95
2023-04-30T08:44:08.316Z,17.89
2023-04-30T08:47:15.089Z,18.00
2023-04-30T08:50:18.396Z,18.25
2023-04-30T08:53:23.059Z,18.47
2023-04-30T08:56:27.458Z,18.69
2023-04-30T08:59:30.672Z,18.56
2023-04-30T09:02:35.339Z,18.51
2023-04-30T09:05:39.215Z,18.62
2023-04-30T09:08:50.169Z,18.56
2023-04-30T09:11:53.346Z,18.51
2023-04-30T09:15:05.206Z,18.64
2023-04-30T09:18:19.412Z,18.79
2023-04-30T09:21:33.361Z,18.81
2023-04-30T09:24:48.526Z,18.56
2023-04-30T09:28:08.936Z,18.30
2023-04-30T09:31:22.581Z,18.12
2023-04-30T09:34:36.503Z,18.02
2023-04-30T09:37:39.965Z,17.87
2023-04-30T09:40:43.465Z,17.70
2023-04-30T09:43:47.030Z,17.64
2023-04-30T09:46:51.687Z,17.55
2023-04-30T09:49:54.857Z,17.52
2023-04-30T09:53:08.452Z,17.45
2023-04-30T09:56:14.849Z,17.42
2023-04-30T09:59:21.043Z,17.41
2023-04-30T10:02:24.497Z,17.38
2023-04-30T10:05:27.954Z,17.33
2023-04-30T10:08:32.842Z,17.20
2023-04-30T10:11:39.385Z,17.09
2023-04-30T10:15:00.778Z,17.02
2023-04-30T10:18:08.003Z,16.92
2023-04-30T10:21:16.181Z,16.88
2023-04-30T10:24:21.387Z,16.82
2023-04-30T10:27:24.887Z,16.75
2023-04-30T10:30:28.611Z,16.71
2023-04-30T10:33:50.641Z,16.70
2023-04-30T10:37:00.849Z,16.68
2023-04-30T10:40:05.837Z,16.61
2023-04-30T10:43:11.977Z,16.55
2023-04-30T10:46:24.550Z,16.52
2023-04-30T10:49:28.240Z,16.42
2023-04-30T10:52:31.621Z,16.32
2023-04-30T10:55:40.238Z,16.20
2023-04-30T10:58:44.770Z,16.11
2023-04-30T11:02:02.305Z,16.05
2023-04-30T11:05:08.378Z,15.93
2023-04-30T11:08:14.674Z,15.85
2023-04-30T11:11:21.818Z,15.73
2023-04-30T11:14:25.193Z,15.61
2023-04-30T11:17:29.131Z,15.52
2023-04-30T11:20:32.307Z,15.42
2023-04-30T11:23:40.492Z,15.30
2023-04-30T11:27:04.409Z,15.20
2023-04-30T11:30:12.442Z,15.05
2023-04-30T11:33:16.092Z,14.96
2023-04-30T11:36:20.589Z,14.92
2023-04-30T11:39:25.668Z,14.87
2023-04-30T11:42:30.907Z,14.82
2023-04-30T11:45:34.168Z,14.79
2023-04-30T11:48:45.484Z,14.76
2023-04-30T11:51:52.531Z,14.68
2023-04-30T11:54:58.577Z,14.56
2023-04-30T11:58:01.830Z,14.45
2023-04-30T12:01:05.888Z,14.44
2023-04-30T12:04:09.962Z,14.42
2023-04-30T12:07:13.900Z,14.38
2023-04-30T12:10:17.647Z,14.34
2023-04-30T12:13:20.949Z,14.30
2023-04-30T12:16:26.393Z,14.30
2023-04-30T12:19:29.652Z,14.27
2023-04-30T12:22:33.090Z,14.22
2023-04-30T12:25:46.250Z,14.21
2023-04-30T12:28:52.709Z,14.18
2023-04-30T12:31:56.638Z,14.15
2023-04-30T12:35:02.394Z,14.11
2023-04-30T12:38:07.540Z,14.06
2023-04-30T12:41:15.915Z,14.04
2023-04-30T12:44:20.046Z,14.01
2023-04-30T12:47:26.090Z,13.98
2023-04-30T12:50:29.888Z,13.94
2023-04-30T12:53:33.349Z,13.95
2023-04-30T12:56:36.552Z,13.94
2023-04-30T12:59:56.969Z,13.85
2023-04-30T13:03:00.900Z,13.72
2023-04-30T13:06:05.402Z,13.61
2023-04-30T13:09:08.566Z,13.57
2023-04-30T13:12:12.971Z,13.50
2023-04-30T13:15:16.688Z,13.47
2023-04-30T13:18:20.348Z,13.44
2023-04-30T13:21:25.692Z,13.40
2023-04-30T13:24:28.965Z,13.37
2023-04-30T13:27:32.303Z,13.32
2023-04-30T13:30:35.607Z,13.25
2023-04-30T13:33:38.834Z,13.18
2023-04-30T13:36:42.211Z,13.11
2023-04-30T13:39:45.501Z,13.06
2023-04-30T13:42:49.745Z,13.02
2023-04-30T13:45:52.994Z,12.97
2023-04-30T13:48:56.635Z,12.94
2023-04-30T13:51:59.797Z,12.92
2023-04-30T13:55:04.376Z,12.96
2023-04-30T13:58:07.669Z,13.01
2023-04-30T14:01:11.179Z,13.00
2023-04-30T14:04:15.873Z,12.97
2023-04-30T14:07:19.288Z,12.97
2023-04-30T14:10:22.998Z,12.90
2023-04-30T14:13:26.362Z,12.84
2023-04-30T14:16:31.036Z,12.79
2023-04-30T14:19:34.251Z,12.80
2023-04-30T14:22:39.098Z,12.77
2023-04-30T14:25:43.188Z,12.78
2023-04-30T14:28:52.188Z,12.77
2023-04-30T14:31:55.404Z,12.75
2023-04-30T14:34:58.750Z,12.70
2023-04-30T14:38:01.980Z,12.63
2023-04-30T14:41:05.188Z,12.60
2023-04-30T14:44:08.419Z,12.54
2023-04-30T14:47:11.717Z,12.53
2023-04-30T14:50:14.900Z,12.50
2023-04-30T14:53:18.096Z,12.47
2023-04-30T14:56:21.755Z,12.44
2023-04-30T14:59:25.004Z,12.42
2023-04-30T15:02:28.262Z,12.44
2023-04-30T15:05:31.749Z,12.50
2023-04-30T15:08:34.985Z,12.52
2023-04-30T15:11:38.274Z,12.48
2023-04-30T15:14:42.005Z,12.47
2023-04-30T15:17:45.244Z,12.43
2023-04-30T15:20:48.675Z,12.45
2023-04-30T15:23:51.947Z,12.44
2023-04-30T15:26:55.847Z,12.42
2023-04-30T15:29:59.073Z,12.37
2023-04-30T15:33:02.233Z,12.34
2023-04-30T15:36:06.062Z,12.32
2023-04-30T15:39:09.259Z,12.32
2023-04-30T15:42:12.560Z,12.31
2023-04-30T15:45:15.853Z,12.25
2023-04-30T15:48:19.003Z,12.19
2023-04-30T15:51:23.020Z,12.17
2023-04-30T15:54:26.356Z,12.13
2023-04-30T15:57:29.519Z,12.11
2023-04-30T16:00:33.988Z,12.15
2023-04-30T16:03:38.146Z,12.16
2023-04-30T16:06:41.641Z,12.08
2023-04-30T16:09:46.606Z,12.01
2023-04-30T16:12:49.486Z,12.02
2023-04-30T16:15:52.692Z,12.04
2023-04-30T16:18:56.322Z,12.05
2023-04-30T16:22:01.348Z,12.04
2023-04-30T16:25:05.106Z,12.07
2023-04-30T16:28:08.429Z,12.14
2023-04-30T16:31:13.582Z,12.15
2023-04-30T16:34:17.031Z,12.15
2023-04-30T16:37:20.211Z,12.13
2023-04-30T16:40:23.597Z,12.13
2023-04-30T16:43:26.885Z,12.13
2023-04-30T16:46:30.487Z,12.17
2023-04-30T16:49:33.804Z,12.16
2023-04-30T16:52:37.010Z,12.14
2023-04-30T16:55:40.354Z,12.14
2023-04-30T16:58:43.623Z,12.11
2023-04-30T17:01:46.998Z,12.07
2023-04-30T17:04:50.513Z,12.00
2023-04-30T17:07:53.687Z,11.89
2023-04-30T17:10:56.837Z,11.85
2023-04-30T17:13:59.980Z,11.82
2023-04-30T17:17:03.174Z,11.72
2023-04-30T17:20:06.986Z,11.68
2023-04-30T17:23:10.113Z,11.65
2023-04-30T17:26:13.304Z,11.62
2023-04-30T17:29:17.259Z,11.61
2023-04-30T17:32:20.617Z,11.58
2023-04-30T17:35:24.053Z,11.51
2023-04-30T17:38:27.646Z,11.38
2023-04-30T17:41:31.053Z,11.35
2023-04-30T17:44:34.746Z,11.28
2023-04-30T17:47:37.985Z,11.25
2023-04-30T17:50:41.244Z,11.23
2023-04-30T17:53:44.342Z,11.21
2023-04-30T17:56:47.543Z,11.23
2023-04-30T17:59:50.758Z,11.20
2023-04-30T18:02:53.981Z,11.15
2023-04-30T18:05:57.360Z,11.11
2023-04-30T18:09:02.102Z,11.08
2023-04-30T18:12:05.329Z,11.09
2023-04-30T18:15:09.269Z,11.12
2023-04-30T18:18:12.456Z,11.11
2023-04-30T18:21:15.931Z,11.07
2023-04-30T18:24:20.227Z,10.98
2023-04-30T18:27:23.398Z,10.88
2023-04-30T18:30:26.544Z,10.81
2023-04-30T18:33:29.745Z,10.76
2023-04-30T18:36:33.003Z,10.67
2023-04-30T18:39:36.148Z,10.53
2023-04-30T18:42:39.376Z,10.43
2023-04-30T18:45:42.619Z,10.39
2023-04-30T18:48:45.800Z,10.40
2023-04-30T18:51:48.976Z,10.45
2023-04-30T18:54:52.748Z,10.51
2023-04-30T18:57:56.969Z,10.51
2023-04-30T19:01:00.284Z,10.47
2023-04-30T19:04:04.196Z,10.43
2023-04-30T19:07:07.331Z,10.40
2023-04-30T19:10:10.697Z,10.36
2023-04-30T19:13:14.109Z,10.35
2023-04-30T19:16:17.669Z,10.47
2023-04-30T19:19:20.793Z,10.56
2023-04-30T19:22:24.431Z,10.58
2023-04-30T19:25:28.130Z,10.56
2023-04-30T19:28:31.320Z,10.51
2023-04-30T19:31:36.086Z,10.55
2023-04-30T19:34:39.067Z,10.60
2023-04-30T19:37:42.389Z,10.59
2023-04-30T19:40:55.039Z,10.51
2023-04-30T19:43:58.191Z,10.32
2023-04-30T19:47:01.704Z,10.19
2023-04-30T19:50:05.078Z,10.12
2023-04-30T19:53:08.320Z,10.06
2023-04-30T19:56:11.474Z,9.98
2023-04-30T19:59:14.843Z,9.89
2023-04-30T20:02:18.089Z,9.86
2023-04-30T20:05:21.233Z,9.81
2023-04-30T20:08:24.559Z,9.75
2023-04-30T20:11:27.826Z,9.72
2023-04-30T20:14:31.617Z,9.69
2023-04-30T20:17:36.703Z,9.66
2023-04-30T20:20:39.940Z,9.65
2023-04-30T20:23:43.226Z,9.63
2023-04-30T20:26:46.385Z,9.64
2023-04-30T20:29:50.031Z,9.58
2023-04-30T20:32:53.257Z,9.50
2023-04-30T20:35:58.632Z,9.41
2023-04-30T20:39:01.995Z,9.32
2023-04-30T20:42:05.200Z,9.26
2023-04-30T20:45:09.157Z,9.20
2023-04-30T20:48:12.700Z,9.17
2023-04-30T20:51:16.590Z,9.12
2023-04-30T20:54:19.759Z,9.10
2023-04-30T20:57:22.913Z,9.10
2023-04-30T21:00:26.065Z,9.11
2023-04-30T21:03:29.209Z,9.15
2023-04-30T21:06:33.703Z,9.18
2023-04-30T21:09:37.588Z,9.22
2023-04-30T21:12:40.882Z,9.27
2023-04-30T21:15:44.234Z,9.31
2023-04-30T21:18:49.242Z,9.34
2023-04-30T21:21:52.508Z,9.35
2023-04-30T21:24:55.662Z,9.38
2023-04-30T21:27:58.925Z,9.41
2023-04-30T21:31:06.751Z,9.43
2023-04-30T21:34:10.026Z,9.44
2023-04-30T21:37:14.493Z,9.45
2023-04-30T21:40:19.638Z,9.46
2023-04-30T21:43:22.747Z,9.50
2023-04-30T21:46:26.317Z,9.53
2023-04-30T21:49:29.553Z,9.55
2023-04-30T21:52:32.708Z,9.54
2023-04-30T21:55:36.034Z,9.59
2023-04-30T21:58:39.881Z,9.64
2023-04-30T22:01:43.083Z,9.68
2023-04-30T22:04:46.251Z,9.74
2023-04-30T22:07:49.470Z,9.75
2023-04-30T22:10:59.066Z,9.82
2023-04-30T22:14:02.283Z,9.85
2023-04-30T22:17:05.535Z,9.91
2023-04-30T22:20:10.547Z,9.97
2023-04-30T22:23:13.716Z,10.02
2023-04-30T22:26:16.908Z,10.14
2023-04-30T22:29:20.434Z,10.20
2023-04-30T22:32:23.648Z,10.27
2023-04-30T22:35:28.678Z,10.29
2023-04-30T22:38:32.515Z,10.36
2023-04-30T22:41:35.769Z,10.37
2023-04-30T22:44:38.945Z,10.38
2023-04-30T22:47:42.935Z,10.41
2023-04-30T22:50:46.229Z,10.42
2023-04-30T22:53:49.680Z,10.44
2023-04-30T22:56:52.908Z,10.44
2023-04-30T22:59:56.316Z,10.44
2023-04-30T23:02:59.697Z,10.49
2023-04-30T23:06:02.990Z,10.54
2023-04-30T23:09:06.251Z,10.60
2023-04-30T23:12:09.680Z,10.71
2023-04-30T23:15:13.159Z,10.82
2023-04-30T23:18:16.311Z,10.96
2023-04-30T23:21:19.508Z,11.14
2023-04-30T23:24:22.699Z,11.33
2023-04-30T23:27:28.857Z,11.51
2023-04-30T23:30:32.041Z,11.70
2023-04-30T23:33:35.176Z,11.86
2023-04-30T23:36:38.315Z,11.98
2023-04-30T23:39:41.418Z,12.10
2023-04-30T23:42:44.513Z,12.23
2023-04-30T23:45:47.612Z,12.34
2023-04-30T23:48:50.775Z,12.49
2023-04-30T23:51:54.066Z,12.59
2023-04-30T23:54:58.263Z,12.69
2023-04-30T23:58:02.149Z,12.81
